Flight Track Log - Related Links

Times and Time Zones

All times are in EDT time to prevent confusion due to time zone crossing. See the EGF4383 flight status page for this flight to view local times or setup timezone preferences in your user account.

Time Position Orientation Groundspeed Altitude Reporting Facility
EDT Latitude Longitude Course Direction KTS MPH feet Rate Location/Type
Thu 05:07:58 PM 38.1000 -78.4833 294° West 192 221 2,800  Level Potomac TRACON
Thu 05:08:50 PM 38.0442 -78.5000 193° South 215 247 5,600 2,233 Climbing Washington Center
Thu 05:09:00 PM 38.2333 -78.7311 270° West  Level FlightAware Approximate
Thu 05:10:00 PM 38.2682 -78.8257 299° West  Level FlightAware Approximate
Thu 05:10:50 PM 38.0656 -78.6433 281° West 197 227 9,200  Level Washington Center
Thu 05:11:00 PM 38.3074 -78.9178 298° West  Level FlightAware Approximate
Thu 05:11:50 PM 38.1033 -78.7161 303° West 234 269 11,600  Level Washington Center
Thu 05:12:00 PM 38.3461 -79.0105 298° West  Level FlightAware Approximate
Thu 05:12:51 PM 38.1428 -78.8075 299° West 263 303 12,600  Level Washington Center
Thu 05:13:00 PM 38.3845 -79.1033 294° West  Level FlightAware Approximate
Thu 05:14:50 PM 38.2350 -79.0125 300° West 319 367 16,700  Level Washington Center
Thu 05:15:51 PM 38.2761 -79.1042 300° West 319 367 18,400 1,800 Climbing Washington Center
Thu 05:16:50 PM 38.3192 -79.2014 299° West 314 361 20,300 1,542 Climbing Washington Center
Thu 05:18:00 PM 38.3917 -79.2816 319° Northwest  Level FlightAware Approximate
Thu 05:18:50 PM 38.3992 -79.3803 319° Northwest 314 361 23,000  Level Washington Center
Thu 05:19:50 PM 38.4436 -79.4886 298° West 319 367 23,300 1,100 Climbing Washington Center
Thu 05:20:50 PM 38.4903 -79.5944 299° West 334 384 25,200 1,934 Climbing Washington Center
Thu 05:21:51 PM 38.5386 -79.7058 299° West 336 387 27,200 1,700 Climbing Washington Center
Thu 05:22:50 PM 38.5811 -79.8014 300° West 331 381 28,600 1,450 Climbing Washington Center
Thu 05:23:51 PM 38.6217 -79.8967 299° West 320 368 30,100 1,438 Climbing Washington Center
Thu 05:24:51 PM 38.6600 -79.9867 299° West 315 362 31,500 1,117 Climbing Washington Center
Thu 05:26:59 PM 38.7458 -80.1861 299° West 327 376 33,600 1,042 Climbing Indianapolis Center
Thu 05:28:01 PM 38.8011 -80.3119 299° West 337 388 34,800 1,065 Climbing Indianapolis Center
Thu 05:29:03 PM 38.8458 -80.4192 298° West 341 392 35,800 581 Climbing Indianapolis Center
Thu 05:30:05 PM 38.8922 -80.5264 299° West 344 396 36,000 97 Climbing Indianapolis Center
Thu 05:31:07 PM 38.9386 -80.6364 298° West 349 402 36,000  Level Indianapolis Center
Thu 05:32:09 PM 38.9831 -80.7444 298° West 342 394 36,000  Level Indianapolis Center
Thu 05:33:11 PM 39.0308 -80.8536 299° West 351 404 36,000  Level Indianapolis Center
Thu 05:34:14 PM 39.0864 -80.9889 298° West 358 412 36,000  Level Indianapolis Center
Thu 05:35:16 PM 39.1328 -81.0994 298° West 354 407 36,000  Level Indianapolis Center
Thu 05:36:18 PM 39.1789 -81.2128 298° West 358 412 36,000  Level Indianapolis Center
Thu 05:37:20 PM 39.2250 -81.3236 298° West 354 407 36,000  Level Indianapolis Center
Thu 05:38:22 PM 39.2711 -81.4372 298° West 359 413 36,000  Level Indianapolis Center
Thu 05:39:24 PM 39.3344 -81.5725 301° West 369 425 36,000  Level Indianapolis Center
Thu 05:40:26 PM 39.3886 -81.6839 302° West 368 423 36,000  Level Indianapolis Center
Thu 05:41:28 PM 39.4411 -81.7925 302° West 359 413 36,000  Level Indianapolis Center
Thu 05:42:30 PM 39.4944 -81.9061 301° West 367 422 36,000  Level Indianapolis Center
Thu 05:43:32 PM 39.5483 -82.0200 302° West 370 426 36,000  Level Indianapolis Center
Thu 05:44:34 PM 39.6075 -82.1439 302° West 368 423 36,000  Level Indianapolis Center
Thu 05:45:36 PM 39.6617 -82.2572 302° West 369 425 36,000  Level Indianapolis Center
Thu 05:46:38 PM 39.7153 -82.3719 301° West 369 425 36,000  Level Indianapolis Center
Thu 05:47:40 PM 39.7692 -82.4872 301° West 371 427 36,000  Level Indianapolis Center
Thu 05:48:42 PM 39.8233 -82.6028 301° West 371 427 36,000  Level Indianapolis Center
Thu 05:49:44 PM 39.8842 -82.7339 301° West 362 417 36,000 -48 Level Indianapolis Center
Thu 05:50:46 PM 39.9367 -82.8447 302° West 358 412 35,900  Descending Indianapolis Center
Thu 05:51:48 PM 39.9883 -82.9592 301° West 365 420 36,000 48 Climbing Indianapolis Center
Thu 05:52:51 PM 40.0408 -83.0744 301° West 368 423 36,000  Level Indianapolis Center
Thu 05:53:53 PM 40.0939 -83.1892 301° West 370 426 36,000  Level Indianapolis Center
Thu 05:54:55 PM 40.1558 -83.3250 301° West 373 429 36,000  Level Indianapolis Center
Thu 05:55:57 PM 40.2089 -83.4406 301° West 372 428 36,000  Level Indianapolis Center
Thu 05:56:59 PM 40.2603 -83.5556 300° West 366 421 36,000  Level Indianapolis Center
Thu 05:58:01 PM 40.3119 -83.6697 301° West 363 418 36,000  Level Indianapolis Center
Thu 05:59:03 PM 40.3631 -83.7822 301° West 359 413 36,000  Level Indianapolis Center
Thu 06:00:05 PM 40.4136 -83.8953 300° West 357 411 36,000  Level Indianapolis Center
Thu 06:01:07 PM 40.4731 -84.0278 301° West 359 413 36,000 -97 Level Indianapolis Center
Thu 06:02:09 PM 40.5253 -84.1425 301° West 361 415 35,800 -581 Descending Indianapolis Center
Thu 06:03:11 PM 40.5753 -84.2603 299° West 365 420 34,800 -871 Descending Indianapolis Center
Thu 06:04:13 PM 40.6275 -84.3728 301° West 361 415 34,000 -387 Descending Indianapolis Center
Thu 06:05:15 PM 40.6769 -84.4869 300° West 357 411 34,000  Level Indianapolis Center
Thu 06:06:17 PM 40.7275 -84.6039 300° West 361 415 34,000  Level Indianapolis Center
Thu 06:07:19 PM 40.7775 -84.7203 300° West 364 419 34,000  Level Indianapolis Center
Thu 06:08:21 PM 40.8344 -84.8583 299° West 365 420 34,000  Level Indianapolis Center
Thu 06:09:23 PM 40.8808 -84.9761 298° West 366 421 34,000  Level Indianapolis Center
Thu 06:10:25 PM 40.9261 -85.0961 297° West 363 418 34,000  Level Indianapolis Center
Thu 06:11:27 PM 40.9725 -85.2114 298° West 355 409 34,000  Level Indianapolis Center
Thu 06:12:29 PM 41.0158 -85.3281 296° West 353 406 34,000 -288 Level Indianapolis Center
Thu 06:13:32 PM 41.0675 -85.4617 297° West 348 400 33,400 -1,344 Descending Indianapolis Center
Thu 06:14:34 PM 41.1119 -85.5825 296° West 361 415 31,200 -2,274 Descending Indianapolis Center
Thu 06:15:36 PM 41.1567 -85.6967 298° West 351 404 28,700 -2,226 Descending Indianapolis Center
Thu 06:16:38 PM 41.2006 -85.8142 296° West 354 407 26,600 -1,790 Descending Indianapolis Center
Thu 06:17:40 PM 41.2458 -85.9403 296° West 372 428 25,000 -1,210 Descending Indianapolis Center
Thu 06:18:42 PM 41.2897 -86.0678 295° West 377 434 24,100 -1,887 Descending Indianapolis Center
Thu 06:19:44 PM 41.3397 -86.2131 295° West 371 427 21,100 -2,613 Descending Indianapolis Center
Thu 06:20:46 PM 41.3825 -86.3350 295° West 366 421 18,700 -1,940 Descending Indianapolis Center
Thu 06:21:57 PM 41.4253 -86.4611 294° West 358 412 16,800 -1,759 Descending Chicago Center
Thu 06:22:59 PM 41.4653 -86.5786 294° West 350 403 14,800 -2,129 Descending Chicago Center
Thu 06:24:01 PM 41.5125 -86.7147 295° West 338 389 12,400 -1,355 Descending Chicago Center
Thu 06:25:03 PM 41.5731 -86.7856 319° Northwest 330 380 12,000 -194 Descending Chicago Center
Thu 06:26:05 PM 41.6658 -86.7986 354° North 335 386 12,000  Level Chicago Center
Thu 06:27:07 PM 41.7753 -86.8097 356° North 331 381 12,000  Level Chicago Center
Thu 06:28:09 PM 41.8653 -86.8311 350° North 330 380 12,000 -435 Level Chicago Center
Thu 06:29:11 PM 41.9031 -86.9347 296° West 322 371 11,100 -871 Descending Chicago Center
Thu 06:30:13 PM 41.9264 -87.0475 286° West 316 364 10,200 -532 Descending Chicago Center
Thu 06:31:15 PM 41.9511 -87.1578 287° West 312 359 10,000 -864 Descending Chicago Center
Thu 06:32:18 PM 41.9722 -87.2678 285° West 251 289 8,400 -1,440 Descending Chicago Center
Thu 06:33:20 PM 41.9858 -87.3597 281° West 251 289 7,000 -677 Descending Chicago Center
Thu 06:34:22 PM 41.9839 -87.4511 268° West 249 287 7,000 -484 Level Chicago Center
Thu 06:35:24 PM 41.9831 -87.5425 269° West 247 284 6,000 -1,113 Descending Chicago Center
Thu 06:36:26 PM 41.9844 -87.6283 271° West 241 277 4,700 -1,258 Descending Chicago Center

Login

Don't have an account? Register now (free) for customized features, flight alerts, and more!